createdAt,value
2022-12-08T00:02:03.223Z,100.00
2022-12-08T00:04:51.288Z,100.00
2022-12-08T00:07:36.469Z,100.00
2022-12-08T00:10:18.879Z,100.00
2022-12-08T00:12:52.190Z,100.00
2022-12-08T00:15:22.210Z,100.00
2022-12-08T00:17:49.717Z,100.00
2022-12-08T00:20:17.452Z,100.00
2022-12-08T00:22:45.008Z,100.00
2022-12-08T00:25:12.597Z,100.00
2022-12-08T00:27:42.269Z,100.00
2022-12-08T00:30:10.756Z,100.00
2022-12-08T00:32:40.900Z,100.00
2022-12-08T00:35:08.802Z,100.00
2022-12-08T00:37:38.897Z,100.00
2022-12-08T00:40:07.392Z,100.00
2022-12-08T00:42:36.620Z,100.00
2022-12-08T00:45:04.184Z,100.00
2022-12-08T00:47:31.729Z,100.00
2022-12-08T00:49:59.273Z,100.00
2022-12-08T00:52:29.082Z,100.00
2022-12-08T00:54:56.671Z,100.00
2022-12-08T00:57:24.171Z,100.00
2022-12-08T00:59:54.184Z,100.00
2022-12-08T01:02:21.690Z,100.00
2022-12-08T01:04:49.190Z,100.00
2022-12-08T01:07:16.725Z,100.00
2022-12-08T01:09:46.551Z,100.00
2022-12-08T01:12:14.109Z,100.00
2022-12-08T01:14:41.623Z,100.00
2022-12-08T01:17:12.000Z,100.00
2022-12-08T01:19:39.612Z,100.00
2022-12-08T01:22:09.873Z,100.00
2022-12-08T01:24:37.403Z,100.00
2022-12-08T01:27:05.023Z,100.00
2022-12-08T01:29:35.524Z,100.00
2022-12-08T01:32:03.400Z,100.00
2022-12-08T01:34:30.912Z,100.00
2022-12-08T01:36:58.492Z,100.00
2022-12-08T01:39:26.232Z,100.00
2022-12-08T01:41:53.823Z,100.00
2022-12-08T01:44:21.301Z,100.00
2022-12-08T01:46:49.224Z,100.00
2022-12-08T01:49:22.190Z,100.00
2022-12-08T01:52:00.168Z,100.00
2022-12-08T01:54:30.659Z,100.00
2022-12-08T01:57:11.317Z,100.00
2022-12-08T01:59:44.132Z,100.00
2022-12-08T02:02:13.264Z,100.00
2022-12-08T02:04:40.836Z,100.00
2022-12-08T02:07:11.786Z,100.00
2022-12-08T02:09:43.993Z,100.00
2022-12-08T02:12:14.368Z,100.00
2022-12-08T02:14:41.968Z,100.00
2022-12-08T02:17:26.348Z,100.00
2022-12-08T02:20:13.200Z,100.00
2022-12-08T02:22:52.356Z,100.00
2022-12-08T02:25:37.718Z,100.00
2022-12-08T02:28:23.445Z,100.00
2022-12-08T02:31:36.388Z,100.00
2022-12-08T02:34:03.872Z,100.00
2022-12-08T02:36:56.264Z,100.00
2022-12-08T02:39:48.066Z,100.00
2022-12-08T02:43:05.024Z,100.00
2022-12-08T02:45:54.349Z,100.00
2022-12-08T02:48:22.246Z,100.00
2022-12-08T02:50:49.764Z,100.00
2022-12-08T02:53:17.247Z,100.00
2022-12-08T02:56:02.565Z,100.00
2022-12-08T02:58:51.865Z,100.00
2022-12-08T03:01:31.559Z,100.00
2022-12-08T03:04:17.827Z,100.00
2022-12-08T03:07:06.426Z,100.00
2022-12-08T03:09:44.228Z,100.00
2022-12-08T03:12:21.968Z,100.00
2022-12-08T03:14:54.329Z,100.00
2022-12-08T03:17:27.037Z,100.00
2022-12-08T03:19:57.779Z,100.00
2022-12-08T03:22:28.646Z,100.00
2022-12-08T03:24:57.585Z,100.00
2022-12-08T03:27:28.837Z,100.00
2022-12-08T03:30:02.125Z,100.00
2022-12-08T03:32:47.757Z,100.00
2022-12-08T03:35:23.892Z,100.00
2022-12-08T03:37:51.451Z,100.00
2022-12-08T03:40:21.507Z,100.00
2022-12-08T03:42:49.092Z,100.00
2022-12-08T03:45:20.937Z,100.00
2022-12-08T03:47:49.108Z,100.00
2022-12-08T03:50:21.946Z,100.00
2022-12-08T03:52:49.566Z,100.00
2022-12-08T03:55:17.802Z,100.00
2022-12-08T03:57:45.740Z,100.00
2022-12-08T04:00:17.237Z,100.00
2022-12-08T04:02:44.852Z,100.00
2022-12-08T04:05:12.426Z,100.00
2022-12-08T04:07:39.973Z,100.00
2022-12-08T04:10:08.173Z,100.00
2022-12-08T04:12:35.747Z,100.00
2022-12-08T04:15:03.256Z,100.00
2022-12-08T04:17:30.975Z,100.00
2022-12-08T04:19:58.487Z,100.00
2022-12-08T04:22:26.082Z,100.00
2022-12-08T04:24:53.704Z,100.00
2022-12-08T04:27:21.752Z,100.00
2022-12-08T04:29:49.259Z,100.00
2022-12-08T04:32:16.752Z,100.00
2022-12-08T04:34:44.278Z,100.00
2022-12-08T04:37:11.842Z,100.00
2022-12-08T04:39:39.447Z,100.00
2022-12-08T04:42:07.028Z,100.00
2022-12-08T04:44:34.577Z,100.00
2022-12-08T04:47:02.199Z,100.00
2022-12-08T04:49:32.143Z,100.00
2022-12-08T04:51:59.761Z,100.00
2022-12-08T04:54:30.086Z,100.00
2022-12-08T04:56:57.598Z,100.00
2022-12-08T04:59:25.105Z,100.00
2022-12-08T05:01:53.868Z,100.00
2022-12-08T05:04:21.561Z,100.00
2022-12-08T05:06:49.411Z,100.00
2022-12-08T05:09:16.953Z,100.00
2022-12-08T05:11:48.851Z,100.00
2022-12-08T05:14:19.162Z,100.00
2022-12-08T05:16:50.057Z,100.00
2022-12-08T05:19:17.777Z,100.00
2022-12-08T05:21:47.851Z,100.00
2022-12-08T05:24:15.457Z,100.00
2022-12-08T05:26:42.982Z,100.00
2022-12-08T05:29:10.553Z,100.00
2022-12-08T05:31:38.146Z,100.00
2022-12-08T05:34:05.716Z,100.00
2022-12-08T05:36:35.619Z,100.00
2022-12-08T05:39:03.225Z,100.00
2022-12-08T05:41:31.096Z,100.00
2022-12-08T05:43:58.656Z,100.00
2022-12-08T05:46:26.323Z,100.00
2022-12-08T05:48:53.882Z,100.00
2022-12-08T05:51:23.930Z,100.00
2022-12-08T05:53:53.021Z,100.00
2022-12-08T05:56:21.847Z,100.00
2022-12-08T05:58:49.839Z,100.00
2022-12-08T06:01:26.185Z,100.00
2022-12-08T06:03:54.276Z,100.00
2022-12-08T06:06:22.287Z,100.00
2022-12-08T06:08:50.301Z,100.00
2022-12-08T06:11:28.507Z,100.00
2022-12-08T06:13:56.998Z,100.00
2022-12-08T06:16:26.144Z,100.00
2022-12-08T06:18:54.280Z,100.00
2022-12-08T06:21:27.647Z,100.00
2022-12-08T06:23:57.837Z,100.00
2022-12-08T06:26:25.572Z,100.00
2022-12-08T06:28:53.626Z,100.00
2022-12-08T06:31:23.636Z,100.00
2022-12-08T06:33:54.457Z,100.00
2022-12-08T06:36:26.648Z,100.00
2022-12-08T06:38:54.176Z,100.00
2022-12-08T06:41:21.736Z,100.00
2022-12-08T06:43:49.301Z,100.00
2022-12-08T06:46:20.247Z,100.00
2022-12-08T06:48:48.210Z,100.00
2022-12-08T06:51:18.093Z,100.00
2022-12-08T06:53:47.019Z,100.00
2022-12-08T06:56:15.845Z,100.00
2022-12-08T06:58:49.030Z,100.00
2022-12-08T07:01:20.127Z,100.00
2022-12-08T07:03:47.967Z,100.00
2022-12-08T07:06:22.649Z,100.00
2022-12-08T07:08:50.264Z,100.00
2022-12-08T07:11:21.974Z,100.00
2022-12-08T07:13:50.859Z,100.00
2022-12-08T07:16:18.539Z,100.00
2022-12-08T07:18:48.650Z,100.00
2022-12-08T07:21:16.756Z,100.00
2022-12-08T07:23:50.252Z,100.00
2022-12-08T07:26:21.770Z,100.00
2022-12-08T07:28:49.441Z,100.00
2022-12-08T07:31:20.403Z,100.00
2022-12-08T07:33:48.531Z,100.00
2022-12-08T07:36:18.687Z,100.00
2022-12-08T07:38:49.701Z,100.00
2022-12-08T07:41:20.067Z,100.00
2022-12-08T07:43:50.254Z,100.00
2022-12-08T07:46:22.070Z,100.00
2022-12-08T07:48:52.550Z,100.00
2022-12-08T07:51:20.266Z,100.00
2022-12-08T07:53:53.687Z,100.00
2022-12-08T07:56:24.516Z,100.00
2022-12-08T07:58:52.392Z,100.00
2022-12-08T08:01:21.471Z,100.00
2022-12-08T08:03:49.720Z,100.00
2022-12-08T08:06:17.622Z,100.00
2022-12-08T08:08:45.332Z,100.00
2022-12-08T08:11:18.919Z,99.98
2022-12-08T08:13:48.324Z,99.10
2022-12-08T08:16:16.087Z,98.10
2022-12-08T08:18:43.740Z,95.74
2022-12-08T08:21:43.958Z,95.75
2022-12-08T08:24:04.042Z,94.89
2022-12-08T08:26:31.623Z,95.38
2022-12-08T08:28:59.215Z,94.11
2022-12-08T08:31:27.864Z,95.11
2022-12-08T08:33:56.858Z,95.64
2022-12-08T08:36:24.464Z,95.27
2022-12-08T08:38:52.615Z,94.21
2022-12-08T08:41:20.157Z,92.33
2022-12-08T08:43:47.753Z,93.08
2022-12-08T08:46:15.395Z,93.27
2022-12-08T08:48:42.960Z,91.71
2022-12-08T08:51:12.318Z,91.54
2022-12-08T08:53:40.146Z,91.70
2022-12-08T08:56:12.260Z,91.05
2022-12-08T08:58:40.507Z,90.89
2022-12-08T09:01:15.465Z,90.37
2022-12-08T09:03:43.137Z,89.78
2022-12-08T09:06:10.788Z,89.57
2022-12-08T09:08:38.390Z,89.91
2022-12-08T09:11:06.115Z,88.79
2022-12-08T09:13:33.821Z,89.38
2022-12-08T09:16:03.658Z,89.46
2022-12-08T09:18:31.632Z,90.36
2022-12-08T09:21:06.189Z,89.61
2022-12-08T09:23:35.822Z,88.93
2022-12-08T09:26:05.081Z,88.44
2022-12-08T09:28:33.926Z,88.77
2022-12-08T09:31:02.248Z,89.02
2022-12-08T09:33:29.991Z,87.67
2022-12-08T09:35:57.785Z,85.45
2022-12-08T09:38:25.317Z,86.70
2022-12-08T09:40:54.745Z,86.12
2022-12-08T09:43:44.048Z,85.68
2022-12-08T09:46:17.522Z,86.85
2022-12-08T09:48:55.753Z,86.79
2022-12-08T09:51:29.545Z,86.37
2022-12-08T09:54:07.714Z,86.30
2022-12-08T09:56:38.184Z,86.66
2022-12-08T09:59:30.310Z,85.94
2022-12-08T10:02:03.737Z,84.96
2022-12-08T10:04:34.940Z,84.87
2022-12-08T10:07:32.023Z,84.59
2022-12-08T10:10:18.181Z,84.75
2022-12-08T10:13:30.539Z,83.68
2022-12-08T10:16:21.149Z,83.85
2022-12-08T10:18:59.113Z,83.11
2022-12-08T10:21:29.922Z,83.20
2022-12-08T10:24:05.716Z,83.47
2022-12-08T10:26:35.737Z,82.88
2022-12-08T10:29:03.567Z,82.58
2022-12-08T10:31:32.444Z,82.12
2022-12-08T10:34:02.379Z,81.42
2022-12-08T10:36:47.685Z,82.95
2022-12-08T10:39:45.593Z,81.57
2022-12-08T10:42:15.958Z,81.78
2022-12-08T10:44:58.481Z,79.81
2022-12-08T10:47:28.641Z,80.78
2022-12-08T10:50:18.863Z,81.88
2022-12-08T10:52:55.009Z,80.21
2022-12-08T10:55:23.042Z,81.40
2022-12-08T10:57:52.755Z,80.78
2022-12-08T11:00:27.122Z,80.69
2022-12-08T11:03:00.776Z,79.29
2022-12-08T11:05:37.203Z,78.19
2022-12-08T11:08:06.690Z,77.00
2022-12-08T11:10:43.382Z,78.77
2022-12-08T11:13:20.767Z,78.18
2022-12-08T11:15:48.695Z,77.77
2022-12-08T11:18:42.060Z,78.79
2022-12-08T11:21:15.312Z,77.76
2022-12-08T11:23:47.557Z,78.75
2022-12-08T11:26:33.157Z,78.61
2022-12-08T11:29:00.713Z,78.55
2022-12-08T11:31:35.056Z,78.96
2022-12-08T11:34:04.248Z,79.48
2022-12-08T11:36:36.573Z,79.09
2022-12-08T11:39:06.474Z,78.68
2022-12-08T11:41:43.855Z,78.96
2022-12-08T11:44:30.127Z,78.16
2022-12-08T11:47:04.544Z,77.96
2022-12-08T11:49:41.172Z,77.52
2022-12-08T11:52:32.532Z,77.94
2022-12-08T11:55:18.828Z,77.05
2022-12-08T11:57:46.971Z,76.63
2022-12-08T12:00:17.507Z,76.90
2022-12-08T12:02:51.647Z,76.57
2022-12-08T12:06:03.358Z,76.61
2022-12-08T12:08:55.961Z,75.88
2022-12-08T12:12:04.339Z,76.48
2022-12-08T12:14:31.885Z,75.95
2022-12-08T12:17:09.296Z,76.24
2022-12-08T12:19:40.589Z,75.65
2022-12-08T12:22:21.430Z,76.30
2022-12-08T12:24:53.003Z,76.54
2022-12-08T12:27:36.096Z,76.45
2022-12-08T12:30:09.024Z,76.36
2022-12-08T12:32:52.766Z,76.24
2022-12-08T12:35:27.122Z,75.75
2022-12-08T12:37:59.656Z,76.65
2022-12-08T12:40:30.108Z,76.54
2022-12-08T12:42:57.666Z,76.77
2022-12-08T12:45:27.096Z,76.72
2022-12-08T12:47:57.795Z,76.09
2022-12-08T12:50:34.352Z,76.12
2022-12-08T12:53:24.303Z,76.71
2022-12-08T12:55:57.970Z,76.41
2022-12-08T12:58:31.522Z,76.70
2022-12-08T13:01:11.307Z,76.38
2022-12-08T13:03:42.838Z,77.28
2022-12-08T13:06:14.904Z,76.94
2022-12-08T13:08:52.217Z,76.87
2022-12-08T13:11:19.957Z,77.01
2022-12-08T13:14:04.328Z,77.50
2022-12-08T13:16:42.473Z,77.34
2022-12-08T13:19:15.961Z,77.05
2022-12-08T13:21:44.838Z,77.16
2022-12-08T13:24:12.734Z,77.38
2022-12-08T13:26:51.029Z,77.63
2022-12-08T13:29:26.444Z,77.50
2022-12-08T13:32:01.293Z,77.43
2022-12-08T13:34:52.836Z,77.31
2022-12-08T13:37:33.878Z,76.65
2022-12-08T13:40:16.470Z,76.70
2022-12-08T13:42:49.580Z,76.89
2022-12-08T13:45:52.945Z,77.84
2022-12-08T13:49:09.591Z,78.80
2022-12-08T13:55:13.569Z,80.74
2022-12-08T13:57:28.988Z,81.65
2022-12-08T14:00:01.837Z,81.70
2022-12-08T14:02:50.303Z,82.24
2022-12-08T14:05:35.252Z,82.46
2022-12-08T14:08:51.054Z,82.66
2022-12-08T14:11:15.019Z,82.51
2022-12-08T14:13:43.210Z,82.76
2022-12-08T14:16:29.624Z,83.55
2022-12-08T14:19:05.555Z,83.50
2022-12-08T14:21:36.195Z,83.63
2022-12-08T14:24:04.224Z,84.06
2022-12-08T14:26:35.453Z,84.29
2022-12-08T14:29:03.152Z,83.90
2022-12-08T14:31:30.816Z,84.01
2022-12-08T14:33:58.755Z,83.63
2022-12-08T14:36:26.845Z,83.40
2022-12-08T14:38:56.790Z,82.99
2022-12-08T14:41:34.312Z,82.86
2022-12-08T14:44:03.090Z,82.83
2022-12-08T14:46:30.867Z,83.13
2022-12-08T14:48:59.708Z,83.52
2022-12-08T14:51:33.043Z,84.82
2022-12-08T14:54:00.589Z,84.62
2022-12-08T14:56:39.117Z,85.45
2022-12-08T14:59:22.836Z,85.47
2022-12-08T15:01:54.960Z,85.58
2022-12-08T15:04:28.201Z,85.74
2022-12-08T15:07:11.833Z,85.77
2022-12-08T15:09:44.255Z,86.04
2022-12-08T15:12:14.798Z,86.04
2022-12-08T15:14:56.222Z,86.64
2022-12-08T15:17:45.293Z,86.82
2022-12-08T15:20:33.339Z,87.72
2022-12-08T15:23:03.364Z,87.01
2022-12-08T15:25:36.126Z,87.32
2022-12-08T15:28:04.362Z,87.34
2022-12-08T15:30:32.004Z,87.20
2022-12-08T15:32:59.656Z,86.81
2022-12-08T15:35:27.199Z,87.07
2022-12-08T15:37:54.765Z,86.70
2022-12-08T15:40:25.972Z,86.79
2022-12-08T15:42:56.004Z,86.46
2022-12-08T15:45:32.065Z,86.37
2022-12-08T15:47:59.622Z,86.67
2022-12-08T15:50:29.568Z,86.47
2022-12-08T15:52:59.562Z,86.42
2022-12-08T15:55:27.794Z,85.86
2022-12-08T16:00:52.611Z,85.75
2022-12-08T16:03:51.650Z,85.46
2022-12-08T16:07:12.487Z,85.04
2022-12-08T16:09:12.179Z,85.14
2022-12-08T16:12:06.521Z,85.00
2022-12-08T16:17:24.663Z,85.17
2022-12-08T16:19:52.505Z,85.66
2022-12-08T16:25:21.625Z,85.96
2022-12-08T16:28:02.966Z,86.39
2022-12-08T16:30:36.411Z,87.36
2022-12-08T16:33:04.215Z,86.78
2022-12-08T16:35:31.909Z,85.77
2022-12-08T16:38:01.010Z,86.56
2022-12-08T16:40:28.710Z,85.99
2022-12-08T16:42:55.336Z,86.58
2022-12-08T16:45:24.545Z,86.45
2022-12-08T16:47:56.420Z,86.98
2022-12-08T16:50:27.605Z,88.05
2022-12-08T16:53:01.173Z,87.77
2022-12-08T16:55:28.880Z,88.24
2022-12-08T16:57:56.679Z,88.72
2022-12-08T17:00:29.689Z,88.45
2022-12-08T17:02:58.537Z,88.27
2022-12-08T17:05:27.131Z,89.01
2022-12-08T17:07:55.836Z,88.89
2022-12-08T17:10:29.340Z,88.58
2022-12-08T17:12:58.058Z,89.18
2022-12-08T17:15:27.269Z,88.74
2022-12-08T17:17:55.317Z,88.86
2022-12-08T17:20:25.792Z,89.32
2022-12-08T17:22:59.667Z,89.06
2022-12-08T17:25:28.014Z,89.09
2022-12-08T17:27:56.359Z,89.00
2022-12-08T17:30:24.407Z,88.52
2022-12-08T17:32:53.583Z,88.76
2022-12-08T17:35:21.669Z,88.71
2022-12-08T17:37:49.186Z,88.92
2022-12-08T17:40:16.899Z,88.70
2022-12-08T17:42:44.678Z,89.15
2022-12-08T17:45:12.388Z,89.80
2022-12-08T17:47:39.974Z,89.49
2022-12-08T17:50:08.726Z,89.21
2022-12-08T17:52:36.728Z,89.15
2022-12-08T17:55:04.958Z,88.91
2022-12-08T17:57:32.600Z,88.89
2022-12-08T18:00:00.123Z,88.84
2022-12-08T18:02:27.742Z,88.61
2022-12-08T18:04:58.311Z,88.89
2022-12-08T18:07:25.834Z,88.31
2022-12-08T18:09:53.686Z,88.51
2022-12-08T18:12:23.745Z,88.47
2022-12-08T18:14:52.339Z,88.09
2022-12-08T18:17:20.609Z,88.06
2022-12-08T18:19:48.277Z,87.74
2022-12-08T18:22:16.103Z,87.41
2022-12-08T18:24:43.814Z,87.91
2022-12-08T18:27:11.432Z,87.88
2022-12-08T18:29:41.537Z,87.80
2022-12-08T18:32:09.452Z,87.36
2022-12-08T18:34:37.087Z,87.69
2022-12-08T18:37:05.274Z,87.83
2022-12-08T18:39:33.979Z,87.39
2022-12-08T18:42:22.746Z,87.22
2022-12-08T18:44:56.242Z,87.49
2022-12-08T18:47:26.058Z,88.09
2022-12-08T18:49:53.609Z,87.68
2022-12-08T18:52:28.113Z,87.76
2022-12-08T18:55:06.433Z,86.79
2022-12-08T18:57:35.503Z,86.98
2022-12-08T19:00:09.220Z,86.93
2022-12-08T19:02:39.355Z,87.20
2022-12-08T19:05:08.172Z,86.99
2022-12-08T19:07:36.154Z,86.71
2022-12-08T19:10:09.335Z,86.50
2022-12-08T19:12:36.999Z,86.82
2022-12-08T19:15:05.754Z,86.91
2022-12-08T19:17:35.606Z,86.60
2022-12-08T19:20:03.626Z,85.96
2022-12-08T19:22:33.690Z,86.61
2022-12-08T19:25:04.185Z,86.14
2022-12-08T19:27:34.092Z,86.30
2022-12-08T19:30:04.309Z,85.99
2022-12-08T19:32:39.388Z,86.09
2022-12-08T19:35:09.270Z,85.45
2022-12-08T19:37:38.976Z,85.57
2022-12-08T19:40:24.844Z,85.58
2022-12-08T19:43:09.786Z,85.87
2022-12-08T19:45:37.841Z,85.97
2022-12-08T19:48:05.922Z,86.52
2022-12-08T19:50:40.387Z,86.60
2022-12-08T19:53:11.312Z,86.77
2022-12-08T19:55:42.423Z,86.90
2022-12-08T19:58:10.798Z,86.89
2022-12-08T20:00:40.364Z,86.89
2022-12-08T20:03:08.453Z,86.68
2022-12-08T20:05:37.630Z,86.90
2022-12-08T20:08:05.412Z,86.99
2022-12-08T20:10:36.645Z,87.14
2022-12-08T20:13:34.338Z,87.56
2022-12-08T20:16:01.929Z,87.52
2022-12-08T20:18:31.941Z,87.47
2022-12-08T20:21:00.298Z,87.47
2022-12-08T20:23:27.888Z,87.67
2022-12-08T20:25:57.554Z,87.89
2022-12-08T20:28:27.598Z,88.23
2022-12-08T20:30:55.125Z,88.30
2022-12-08T20:33:22.771Z,88.51
2022-12-08T20:36:07.545Z,88.42
2022-12-08T20:38:36.386Z,88.59
2022-12-08T20:41:03.986Z,88.43
2022-12-08T20:43:31.501Z,88.71
2022-12-08T20:45:59.153Z,89.17
2022-12-08T20:48:26.984Z,89.55
2022-12-08T20:50:56.724Z,89.72
2022-12-08T20:53:26.223Z,89.64
2022-12-08T20:55:53.980Z,89.31
2022-12-08T20:58:21.791Z,89.36
2022-12-08T21:00:52.124Z,89.45
2022-12-08T21:03:24.990Z,89.73
2022-12-08T21:05:55.273Z,89.95
2022-12-08T21:08:26.092Z,89.31
2022-12-08T21:10:57.359Z,89.53
2022-12-08T21:13:27.668Z,89.46
2022-12-08T21:15:55.432Z,89.64
2022-12-08T21:18:23.585Z,89.69
2022-12-08T21:20:52.900Z,89.74
2022-12-08T21:23:20.562Z,89.43
2022-12-08T21:25:48.564Z,89.65
2022-12-08T21:28:16.613Z,89.71
2022-12-08T21:30:44.736Z,89.83
2022-12-08T21:33:12.579Z,89.90
2022-12-08T21:35:40.671Z,90.20
2022-12-08T21:38:10.564Z,90.76
2022-12-08T21:40:38.419Z,90.15
2022-12-08T21:43:06.047Z,90.40
2022-12-08T21:45:35.400Z,90.81
2022-12-08T21:48:10.756Z,90.84
2022-12-08T21:50:41.395Z,90.96
2022-12-08T21:53:09.008Z,90.97
2022-12-08T21:55:36.642Z,91.15
2022-12-08T21:58:07.557Z,91.30
2022-12-08T22:00:35.268Z,91.72
2022-12-08T22:03:03.761Z,91.27
2022-12-08T22:05:32.135Z,91.53
2022-12-08T22:07:59.864Z,91.97
2022-12-08T22:10:27.713Z,92.14
2022-12-08T22:12:55.592Z,92.24
2022-12-08T22:15:23.363Z,91.84
2022-12-08T22:17:51.023Z,91.77
2022-12-08T22:20:19.076Z,91.82
2022-12-08T22:22:49.193Z,91.97
2022-12-08T22:25:16.896Z,92.25
2022-12-08T22:27:44.420Z,92.32
2022-12-08T22:30:14.440Z,92.21
2022-12-08T22:32:42.432Z,92.21
2022-12-08T22:35:11.303Z,92.42
2022-12-08T22:37:39.266Z,92.58
2022-12-08T22:40:08.009Z,92.34
2022-12-08T22:42:35.811Z,92.59
2022-12-08T22:45:03.491Z,92.85
2022-12-08T22:47:33.298Z,92.74
2022-12-08T22:50:00.911Z,92.87
2022-12-08T22:52:31.056Z,92.84
2022-12-08T22:54:58.659Z,92.69
2022-12-08T22:57:26.216Z,92.64
2022-12-08T22:59:54.011Z,92.48
2022-12-08T23:02:21.917Z,93.11
2022-12-08T23:04:49.740Z,93.42
2022-12-08T23:07:17.368Z,93.36
2022-12-08T23:09:44.895Z,93.52
2022-12-08T23:12:13.652Z,93.54
2022-12-08T23:14:41.244Z,93.78
2022-12-08T23:17:09.196Z,93.75
2022-12-08T23:19:40.298Z,93.57
2022-12-08T23:22:07.954Z,93.71
2022-12-08T23:24:35.519Z,93.94
2022-12-08T23:27:03.178Z,93.90
2022-12-08T23:29:31.096Z,94.20
2022-12-08T23:31:59.024Z,94.85
2022-12-08T23:34:26.719Z,94.70
2022-12-08T23:36:54.352Z,94.94
2022-12-08T23:39:24.780Z,94.67
2022-12-08T23:41:52.784Z,94.75
2022-12-08T23:44:20.657Z,95.29
2022-12-08T23:46:50.882Z,94.74
2022-12-08T23:49:18.455Z,94.95
2022-12-08T23:51:48.237Z,95.19
2022-12-08T23:54:15.851Z,95.57
2022-12-08T23:56:43.736Z,95.31
2022-12-08T23:59:13.652Z,95.64
